Honeywell Corners, New York
Current Conditions -  °F | °C
As of 3:35 AM on Friday 19 Dec 2014 (Local Time) from KNY0 Reporting Station
Overcast Overcast  
Wind Chill: 18°   Ceiling: 3900
Heat Index: 27°   Visibility: 10mi
Dew Point: 19°   Wind: 10mph
Humidity: 70%   Direction: 290°WNW
Pressure: 29.95"   Gusts: 20mph
Location:  43.0744°N, 74.1473°W
Report Text: KNY0 190835Z AUTO 29009G17KT 10SM OVC039 M03/M07 A2995 RMK AO2 T10271074
Loading
Personal Weather Stations






























Interactive Weather Map New forecast layout! Learn more

10-Day Weather Forecast

Advertisements
Track Severe Weather on mobile